Time;durP1;ratioP1;P1;durP2;ratioP2;P2;SDS_P1;SDS_P2;PMS_P1;PMS_P2;Temp;Humidity;BMP_temperature;BMP_pressure;BME280_temperature;BME280_humidity;BME280_pressure;Samples;Min_cycle;Max_cycle;Signal;HPM_P1;HPM_P2
2022/12/08 00:01:31;;;;;;;6.60;3.00;;;;;;;;;;5081740;27;88864;-57
2022/12/08 00:03:59;;;;;;;4.43;3.20;;;;;;;;;;5083046;27;87097;-58
2022/12/08 00:09:23;;;;;;;8.50;3.10;;;;;;;;;;5082709;27;87891;-57
2022/12/08 00:11:52;;;;;;;5.03;3.40;;;;;;;;;;5083734;27;89240;-58
2022/12/08 00:14:20;;;;;;;7.13;3.57;;;;;;;;;;5082356;27;87129;-57
2022/12/08 00:16:48;;;;;;;7.67;3.70;;;;;;;;;;5082976;27;87082;-57
2022/12/08 00:19:17;;;;;;;8.70;3.43;;;;;;;;;;5081599;27;88860;-57
2022/12/08 00:21:45;;;;;;;8.80;4.50;;;;;;;;;;5082421;27;89835;-58
2022/12/08 00:24:13;;;;;;;12.67;4.87;;;;;;;;;;5082460;27;86966;-58
2022/12/08 00:26:43;;;;;;;8.80;4.23;;;;;;;;;;5082699;27;86992;-58
2022/12/08 00:29:11;;;;;;;7.10;3.67;;;;;;;;;;5082373;27;88932;-58
2022/12/08 00:31:44;;;;;;;7.53;4.37;;;;;;;;;;5082808;27;87684;-57
2022/12/08 00:34:13;;;;;;;9.20;3.90;;;;;;;;;;5082910;27;87108;-58
2022/12/08 00:36:41;;;;;;;5.93;4.13;;;;;;;;;;5082302;27;86259;-58
2022/12/08 00:39:09;;;;;;;9.43;4.30;;;;;;;;;;5081518;27;87940;-58
2022/12/08 00:44:25;;;;;;;12.00;5.00;;;;;;;;;;5081687;27;87992;-58
2022/12/08 00:46:54;;;;;;;10.40;4.53;;;;;;;;;;5071877;27;87062;-59
2022/12/08 00:49:22;;;;;;;8.83;4.57;;;;;;;;;;5061351;27;89275;-58
2022/12/08 00:51:50;;;;;;;9.90;4.83;;;;;;;;;;5061485;27;89352;-58
2022/12/08 00:54:19;;;;;;;10.93;5.57;;;;;;;;;;5061627;27;87062;-58
2022/12/08 00:56:47;;;;;;;7.83;5.00;;;;;;;;;;5061371;27;87062;-57
2022/12/08 00:59:15;;;;;;;8.03;4.87;;;;;;;;;;5061025;27;88911;-58
2022/12/08 01:01:45;;;;;;;9.97;5.00;;;;;;;;;;5061869;27;88919;-58
2022/12/08 01:04:14;;;;;;;11.13;4.70;;;;;;;;;;5061590;27;86981;-58
2022/12/08 01:06:43;;;;;;;10.23;4.87;;;;;;;;;;5061525;27;87058;-57
2022/12/08 01:09:11;;;;;;;9.10;5.50;;;;;;;;;;5060738;27;89065;-57
2022/12/08 01:11:39;;;;;;;10.97;5.57;;;;;;;;;;5061484;27;89844;-58
2022/12/08 01:14:08;;;;;;;11.53;5.90;;;;;;;;;;5058611;27;86968;-58
2022/12/08 01:16:36;;;;;;;10.43;5.60;;;;;;;;;;5081879;27;87048;-58
2022/12/08 01:19:06;;;;;;;11.33;5.30;;;;;;;;;;5072182;27;88053;-58
2022/12/08 01:21:34;;;;;;;11.43;6.17;;;;;;;;;;5061302;27;87828;-57
2022/12/08 01:24:02;;;;;;;14.40;6.07;;;;;;;;;;5061139;27;87046;-58
2022/12/08 01:26:31;;;;;;;11.33;5.30;;;;;;;;;;5061694;27;86321;-58
2022/12/08 01:28:59;;;;;;;10.47;5.50;;;;;;;;;;5061292;27;88929;-58
2022/12/08 01:31:27;;;;;;;9.13;4.77;;;;;;;;;;5072048;27;87093;-60
2022/12/08 01:33:57;;;;;;;13.13;6.07;;;;;;;;;;5081440;27;88013;-58
2022/12/08 01:36:27;;;;;;;7.70;4.70;;;;;;;;;;5081783;27;87068;-58
2022/12/08 01:38:57;;;;;;;8.00;5.30;;;;;;;;;;5081126;27;88983;-58
2022/12/08 01:41:25;;;;;;;9.17;4.43;;;;;;;;;;5080545;27;87770;-57
2022/12/08 01:43:58;;;;;;;13.20;5.57;;;;;;;;;;5081843;27;87619;-58
2022/12/08 01:46:26;;;;;;;9.23;4.90;;;;;;;;;;5081638;27;87026;-58
2022/12/08 01:48:56;;;;;;;9.30;5.00;;;;;;;;;;5081586;27;88053;-58
2022/12/08 01:51:24;;;;;;;9.97;5.13;;;;;;;;;;5081012;27;87590;-58
2022/12/08 01:53:54;;;;;;;9.90;4.30;;;;;;;;;;5080962;27;86991;-58
2022/12/08 01:56:25;;;;;;;9.00;4.87;;;;;;;;;;5081802;27;87127;-60
2022/12/08 01:58:53;;;;;;;12.63;5.10;;;;;;;;;;5080354;27;89965;-60
2022/12/08 02:01:21;;;;;;;8.40;4.67;;;;;;;;;;5081417;27;89873;-60
2022/12/08 02:03:51;;;;;;;8.50;4.17;;;;;;;;;;5081979;27;87007;-60
2022/12/08 02:06:19;;;;;;;6.47;4.20;;;;;;;;;;5082048;27;87089;-60
2022/12/08 02:08:48;;;;;;;7.97;4.17;;;;;;;;;;5063419;27;89172;-59
2022/12/08 02:11:18;;;;;;;9.70;4.03;;;;;;;;;;5060780;27;87427;-60
2022/12/08 02:13:46;;;;;;;6.20;3.07;;;;;;;;;;5061029;27;87084;-59
2022/12/08 02:16:17;;;;;;;7.30;3.60;;;;;;;;;;5061415;27;86367;-59
2022/12/08 02:18:49;;;;;;;7.03;2.90;;;;;;;;;;5060880;27;88881;-59
2022/12/08 02:21:38;;;;;;;7.37;3.73;;;;;;;;;;5060129;27;87929;-59
2022/12/08 02:24:09;;;;;;;5.73;3.63;;;;;;;;;;5060479;27;88020;-59
2022/12/08 02:26:44;;;;;;;6.83;3.20;;;;;;;;;;5060780;27;87013;-59
2022/12/08 02:29:28;;;;;;;5.77;3.67;;;;;;;;;;5060781;27;89112;-59
2022/12/08 02:31:58;;;;;;;4.97;2.90;;;;;;;;;;5060448;27;88413;-59
2022/12/08 02:34:29;;;;;;;7.93;3.63;;;;;;;;;;5060419;27;87108;-59
2022/12/08 02:36:58;;;;;;;6.03;3.10;;;;;;;;;;5060606;27;87081;-59
2022/12/08 02:39:29;;;;;;;7.77;3.53;;;;;;;;;;5060298;27;88088;-59
2022/12/08 02:41:58;;;;;;;4.43;2.83;;;;;;;;;;5060491;27;88441;-59
2022/12/08 02:44:28;;;;;;;4.00;2.43;;;;;;;;;;5060052;27;87055;-59
2022/12/08 02:46:57;;;;;;;6.90;3.50;;;;;;;;;;5060735;27;87061;-59
2022/12/08 02:49:30;;;;;;;6.30;2.77;;;;;;;;;;5059956;27;90180;-59
2022/12/08 02:52:05;;;;;;;5.73;2.87;;;;;;;;;;5062159;27;90145;-60
2022/12/08 02:54:33;;;;;;;4.67;2.70;;;;;;;;;;5063902;27;87030;-59
2022/12/08 02:57:07;;;;;;;5.70;2.77;;;;;;;;;;5063557;27;86990;-59
2022/12/08 02:59:42;;;;;;;4.73;2.90;;;;;;;;;;5063711;27;89100;-59
2022/12/08 03:02:14;;;;;;;6.13;3.07;;;;;;;;;;5063143;27;88413;-59
2022/12/08 03:04:46;;;;;;;4.33;1.90;;;;;;;;;;5063671;27;87066;-59
2022/12/08 03:07:15;;;;;;;3.70;2.63;;;;;;;;;;5064012;27;86312;-59
2022/12/08 03:09:46;;;;;;;2.97;1.77;;;;;;;;;;5063570;27;87980;-59
2022/12/08 03:12:16;;;;;;;5.20;2.37;;;;;;;;;;5063788;27;87781;-59
2022/12/08 03:14:46;;;;;;;2.80;1.63;;;;;;;;;;5063183;27;88464;-59
2022/12/08 03:17:14;;;;;;;5.47;2.00;;;;;;;;;;5063977;27;87051;-59
2022/12/08 03:19:42;;;;;;;4.57;2.37;;;;;;;;;;5063407;27;88269;-59
2022/12/08 03:22:12;;;;;;;5.73;2.00;;;;;;;;;;5063262;27;88618;-59
2022/12/08 03:24:41;;;;;;;5.60;2.30;;;;;;;;;;5063373;27;87090;-59
2022/12/08 03:27:10;;;;;;;2.47;1.90;;;;;;;;;;5062891;27;87060;-60
2022/12/08 03:29:38;;;;;;;2.40;1.67;;;;;;;;;;5063280;27;89099;-58
2022/12/08 03:32:08;;;;;;;1.87;1.60;;;;;;;;;;5063017;27;87968;-59
2022/12/08 03:34:36;;;;;;;3.30;1.50;;;;;;;;;;5063379;27;87094;-59
2022/12/08 03:37:05;;;;;;;4.67;2.30;;;;;;;;;;5063685;27;87024;-59
2022/12/08 03:39:34;;;;;;;2.27;1.90;;;;;;;;;;5062575;27;90158;-60
2022/12/08 03:42:03;;;;;;;4.40;2.13;;;;;;;;;;5062719;27;88711;-59
2022/12/08 03:44:31;;;;;;;2.53;1.57;;;;;;;;;;5063065;27;87156;-59
2022/12/08 03:46:59;;;;;;;2.63;1.70;;;;;;;;;;5063211;27;87076;-59
2022/12/08 03:49:28;;;;;;;2.20;1.57;;;;;;;;;;5063215;27;89130;-59
2022/12/08 03:51:56;;;;;;;2.20;1.60;;;;;;;;;;5062756;27;89205;-59
2022/12/08 03:54:24;;;;;;;3.23;1.87;;;;;;;;;;5062934;27;86991;-59
2022/12/08 03:56:54;;;;;;;3.23;1.30;;;;;;;;;;5063353;27;86263;-59
2022/12/08 03:59:22;;;;;;;5.17;1.40;;;;;;;;;;5063413;27;89374;-59
2022/12/08 04:01:50;;;;;;;4.23;1.80;;;;;;;;;;5063064;27;88828;-59
2022/12/08 04:04:19;;;;;;;3.17;1.80;;;;;;;;;;5062058;27;88036;-59
2022/12/08 04:06:47;;;;;;;3.17;1.50;;;;;;;;;;5063132;27;87118;-59
2022/12/08 04:09:15;;;;;;;1.17;1.07;;;;;;;;;;5082919;27;89102;-58
2022/12/08 04:11:44;;;;;;;1.17;1.07;;;;;;;;;;5083099;27;88835;-59
2022/12/08 04:14:13;;;;;;;2.93;1.67;;;;;;;;;;5083595;27;87110;-59
2022/12/08 04:16:42;;;;;;;1.30;1.10;;;;;;;;;;5082633;27;87030;-59
2022/12/08 04:19:10;;;;;;;1.13;1.07;;;;;;;;;;5082850;27;87749;-58
2022/12/08 04:21:38;;;;;;;2.73;1.30;;;;;;;;;;5083125;27;88847;-59
2022/12/08 04:24:07;;;;;;;2.37;1.57;;;;;;;;;;5083413;27;87006;-59
2022/12/08 04:26:35;;;;;;;2.90;1.27;;;;;;;;;;5082566;27;87064;-59
2022/12/08 04:29:04;;;;;;;1.47;1.33;;;;;;;;;;5082258;27;90237;-59
2022/12/08 04:31:33;;;;;;;2.10;1.10;;;;;;;;;;5082813;27;89736;-59
2022/12/08 04:34:02;;;;;;;2.00;1.00;;;;;;;;;;5082985;27;87095;-59
2022/12/08 04:36:30;;;;;;;1.73;1.03;;;;;;;;;;5082902;27;87298;-59
2022/12/08 04:38:58;;;;;;;0.97;0.90;;;;;;;;;;5082584;27;87953;-59
2022/12/08 04:41:26;;;;;;;2.30;1.27;;;;;;;;;;5081937;27;87890;-59
2022/12/08 04:43:55;;;;;;;1.57;1.13;;;;;;;;;;5082272;27;87083;-59
2022/12/08 04:46:23;;;;;;;1.70;1.33;;;;;;;;;;5082339;27;86325;-59
2022/12/08 04:48:53;;;;;;;2.73;1.10;;;;;;;;;;5082601;27;89106;-59
2022/12/08 04:51:21;;;;;;;1.20;0.67;;;;;;;;;;5081904;27;89403;-59
2022/12/08 04:53:50;;;;;;;4.83;1.80;;;;;;;;;;5082208;27;88900;-59
2022/12/08 04:56:18;;;;;;;0.73;0.70;;;;;;;;;;5082024;27;87048;-58
2022/12/08 04:58:47;;;;;;;2.00;1.17;;;;;;;;;;5079730;27;86958;-59
2022/12/08 05:01:15;;;;;;;2.67;1.23;;;;;;;;;;5060964;27;88964;-59
2022/12/08 05:03:44;;;;;;;2.43;0.90;;;;;;;;;;5060674;27;87453;-59
2022/12/08 05:06:14;;;;;;;1.70;0.77;;;;;;;;;;5061912;27;87124;-59
2022/12/08 05:08:42;;;;;;;0.93;0.77;;;;;;;;;;5078578;27;88067;-59
2022/12/08 05:11:11;;;;;;;1.43;0.77;;;;;;;;;;5081656;27;87631;-59
2022/12/08 05:13:40;;;;;;;2.23;1.27;;;;;;;;;;5081120;27;87153;-59
2022/12/08 05:16:09;;;;;;;1.10;1.00;;;;;;;;;;5077141;27;87444;-59
2022/12/08 05:18:37;;;;;;;1.87;0.60;;;;;;;;;;5078371;27;88414;-59
2022/12/08 05:21:06;;;;;;;0.93;0.80;;;;;;;;;;5078418;27;89364;-59
2022/12/08 05:23:35;;;;;;;1.87;0.90;;;;;;;;;;5080765;27;87629;-60
2022/12/08 05:26:04;;;;;;;1.13;1.03;;;;;;;;;;5081117;27;87008;-59
2022/12/08 05:28:32;;;;;;;0.77;0.77;;;;;;;;;;5081104;27;87964;-59
2022/12/08 05:31:10;;;;;;;0.70;0.70;;;;;;;;;;5081800;27;88786;-60
2022/12/08 05:33:38;;;;;;;2.90;0.63;;;;;;;;;;5082094;27;87822;-59
2022/12/08 05:36:07;;;;;;;1.30;0.93;;;;;;;;;;5082065;27;86330;-60
2022/12/08 05:38:37;;;;;;;0.80;0.80;;;;;;;;;;5081714;27;88582;-60
2022/12/08 05:41:06;;;;;;;1.73;0.67;;;;;;;;;;5081952;27;87800;-59
2022/12/08 05:43:34;;;;;;;0.70;0.70;;;;;;;;;;5080744;27;87955;-59
2022/12/08 05:46:03;;;;;;;3.60;1.23;;;;;;;;;;5072217;27;86974;-59
2022/12/08 05:48:31;;;;;;;1.97;0.70;;;;;;;;;;5061474;27;89002;-60
2022/12/08 05:50:59;;;;;;;0.60;0.57;;;;;;;;;;5061051;27;87905;-60
2022/12/08 05:53:28;;;;;;;0.90;0.70;;;;;;;;;;5061794;27;87047;-60
2022/12/08 05:55:57;;;;;;;1.40;0.60;;;;;;;;;;5061349;27;86929;-60
2022/12/08 05:58:26;;;;;;;1.53;0.67;;;;;;;;;;5060964;27;87966;-60
2022/12/08 06:00:54;;;;;;;0.73;0.73;;;;;;;;;;5061414;27;89131;-59
2022/12/08 06:03:22;;;;;;;2.17;0.83;;;;;;;;;;5061069;27;87010;-59
2022/12/08 06:05:51;;;;;;;0.57;0.57;;;;;;;;;;5061048;27;87108;-59
2022/12/08 06:08:19;;;;;;;0.67;0.40;;;;;;;;;;5060605;27;90195;-59
2022/12/08 06:10:47;;;;;;;0.87;0.50;;;;;;;;;;5060611;27;89693;-59
2022/12/08 06:13:17;;;;;;;1.03;0.77;;;;;;;;;;5061202;27;87027;-59
2022/12/08 06:15:45;;;;;;;2.90;0.90;;;;;;;;;;5061114;27;87058;-60
2022/12/08 06:18:14;;;;;;;0.67;0.60;;;;;;;;;;5060512;27;89118;-60
2022/12/08 06:20:42;;;;;;;1.10;0.80;;;;;;;;;;5060272;27;88735;-59
2022/12/08 06:23:10;;;;;;;1.60;0.90;;;;;;;;;;5060647;27;87913;-59
2022/12/08 06:25:39;;;;;;;0.57;0.50;;;;;;;;;;5061142;27;86319;-59
2022/12/08 06:28:07;;;;;;;0.40;0.33;;;;;;;;;;5063789;27;87741;-59
2022/12/08 06:30:37;;;;;;;0.60;0.60;;;;;;;;;;5064160;27;87788;-59
2022/12/08 06:33:05;;;;;;;0.70;0.70;;;;;;;;;;5064099;27;88026;-59
2022/12/08 06:35:33;;;;;;;0.80;0.60;;;;;;;;;;5064402;27;87032;-59
2022/12/08 06:38:01;;;;;;;0.50;0.50;;;;;;;;;;5063998;27;89341;-59
2022/12/08 06:40:30;;;;;;;0.67;0.67;;;;;;;;;;5063936;27;87605;-59
2022/12/08 06:42:58;;;;;;;0.40;0.40;;;;;;;;;;5064154;27;87069;-59
2022/12/08 06:45:26;;;;;;;0.50;0.50;;;;;;;;;;5064930;27;87662;-59
2022/12/08 06:47:56;;;;;;;0.50;0.50;;;;;;;;;;5064024;27;87762;-59
2022/12/08 06:50:24;;;;;;;1.13;0.40;;;;;;;;;;5064250;27;88873;-60
2022/12/08 06:52:53;;;;;;;1.03;0.93;;;;;;;;;;5064129;27;87022;-60
2022/12/08 06:55:32;;;;;;;0.60;0.53;;;;;;;;;;5064282;27;87095;-59
2022/12/08 06:58:20;;;;;;;0.53;0.50;;;;;;;;;;5063025;27;88565;-59
2022/12/08 07:00:48;;;;;;;1.50;0.40;;;;;;;;;;5063713;27;89716;-59
2022/12/08 07:03:18;;;;;;;0.57;0.57;;;;;;;;;;5064294;27;86971;-59
2022/12/08 07:05:46;;;;;;;0.47;0.47;;;;;;;;;;5063892;27;87053;-59
2022/12/08 07:08:15;;;;;;;0.60;0.60;;;;;;;;;;5076723;27;89084;-59
2022/12/08 07:10:43;;;;;;;0.20;0.20;;;;;;;;;;5084369;27;88944;-59
2022/12/08 07:13:11;;;;;;;0.63;0.50;;;;;;;;;;5084756;27;87052;-59
2022/12/08 07:15:40;;;;;;;0.40;0.40;;;;;;;;;;5084704;27;86350;-60
2022/12/08 07:18:08;;;;;;;0.40;0.40;;;;;;;;;;5083925;27;88954;-59
2022/12/08 07:20:38;;;;;;;0.20;0.20;;;;;;;;;;5083460;27;88976;-59
2022/12/08 07:23:06;;;;;;;1.10;0.77;;;;;;;;;;5083733;27;88051;-60
2022/12/08 07:25:34;;;;;;;0.30;0.30;;;;;;;;;;5084054;27;86968;-59
2022/12/08 07:28:07;;;;;;;0.73;0.53;;;;;;;;;;5083926;27;87740;-59
2022/12/08 07:30:36;;;;;;;2.10;0.80;;;;;;;;;;5083972;27;88653;-60
2022/12/08 07:33:04;;;;;;;0.40;0.40;;;;;;;;;;5083795;27;87086;-59
2022/12/08 07:35:33;;;;;;;0.50;0.50;;;;;;;;;;5084453;27;87597;-61
2022/12/08 07:38:04;;;;;;;0.90;0.50;;;;;;;;;;5082104;27;87963;-59
2022/12/08 07:40:32;;;;;;;0.67;0.67;;;;;;;;;;5083514;27;89137;-60
2022/12/08 07:43:00;;;;;;;0.43;0.43;;;;;;;;;;5083166;27;87050;-60
2022/12/08 07:45:29;;;;;;;1.13;0.40;;;;;;;;;;5082979;27;87071;-59
2022/12/08 07:47:59;;;;;;;0.43;0.40;;;;;;;;;;5083011;27;88975;-59
2022/12/08 07:50:27;;;;;;;0.40;0.40;;;;;;;;;;5083130;27;89013;-60
2022/12/08 07:52:55;;;;;;;1.20;0.43;;;;;;;;;;5083088;27;87004;-60
2022/12/08 07:55:25;;;;;;;0.50;0.50;;;;;;;;;;5081411;27;87543;-60
2022/12/08 07:57:53;;;;;;;0.50;0.50;;;;;;;;;;5046000;27;87027;-60
2022/12/08 08:00:22;;;;;;;0.53;0.53;;;;;;;;;;5059580;27;87774;-60
2022/12/08 08:02:50;;;;;;;5.40;0.73;;;;;;;;;;5047141;27;87005;-60
2022/12/08 08:05:19;;;;;;;0.50;0.50;;;;;;;;;;5076719;27;86333;-60
2022/12/08 08:07:47;;;;;;;1.03;0.60;;;;;;;;;;5083353;27;87959;-60
2022/12/08 08:10:16;;;;;;;1.30;0.33;;;;;;;;;;5056769;27;88829;-60
2022/12/08 08:12:46;;;;;;;0.63;0.63;;;;;;;;;;5053049;27;88015;-60
2022/12/08 08:15:14;;;;;;;0.20;0.20;;;;;;;;;;5041193;27;86957;-60
2022/12/08 08:17:43;;;;;;;0.37;0.37;;;;;;;;;;5040779;28;89174;-60
2022/12/08 08:20:11;;;;;;;0.30;0.30;;;;;;;;;;5042477;27;88983;-60
2022/12/08 08:22:40;;;;;;;0.30;0.30;;;;;;;;;;5042124;27;87048;-60
2022/12/08 08:25:08;;;;;;;1.17;0.50;;;;;;;;;;5042320;27;87281;-60
2022/12/08 08:27:37;;;;;;;0.30;0.30;;;;;;;;;;5042067;27;88143;-60
2022/12/08 08:30:07;;;;;;;0.53;0.40;;;;;;;;;;5042247;27;86590;-60
2022/12/08 08:32:36;;;;;;;0.80;0.60;;;;;;;;;;5041810;28;88176;-59
2022/12/08 08:35:04;;;;;;;0.30;0.30;;;;;;;;;;5042230;27;86980;-60
2022/12/08 08:37:32;;;;;;;0.20;0.20;;;;;;;;;;5041345;27;90225;-60
2022/12/08 08:40:01;;;;;;;0.30;0.30;;;;;;;;;;5041995;27;88386;-60
2022/12/08 08:42:29;;;;;;;0.80;0.80;;;;;;;;;;5041798;27;86914;-60
2022/12/08 08:44:58;;;;;;;0.20;0.20;;;;;;;;;;5041250;27;87005;-60
2022/12/08 08:47:27;;;;;;;0.50;0.50;;;;;;;;;;5041976;27;88154;-59
2022/12/08 08:49:56;;;;;;;0.43;0.33;;;;;;;;;;5041377;27;88577;-60
2022/12/08 08:52:24;;;;;;;1.57;0.63;;;;;;;;;;5041360;27;88005;-60
2022/12/08 08:54:52;;;;;;;6.03;0.50;;;;;;;;;;5042331;27;86315;-60
2022/12/08 08:57:21;;;;;;;0.63;0.60;;;;;;;;;;5041174;28;89205;-59
2022/12/08 08:59:53;;;;;;;0.30;0.30;;;;;;;;;;5041371;27;88743;-60
2022/12/08 09:02:21;;;;;;;0.67;0.43;;;;;;;;;;5041078;28;88694;-59
2022/12/08 09:04:51;;;;;;;0.63;0.50;;;;;;;;;;5041042;27;87044;-60
2022/12/08 09:07:19;;;;;;;0.40;0.37;;;;;;;;;;5041543;27;88058;-60
2022/12/08 09:09:48;;;;;;;0.50;0.40;;;;;;;;;;5041250;27;89836;-59
2022/12/08 09:12:16;;;;;;;0.67;0.50;;;;;;;;;;5041956;27;87067;-59
2022/12/08 09:14:45;;;;;;;0.97;0.40;;;;;;;;;;5041438;27;87113;-60
2022/12/08 09:17:13;;;;;;;0.40;0.40;;;;;;;;;;5041126;27;88265;-59
2022/12/08 09:19:42;;;;;;;1.40;0.40;;;;;;;;;;5041304;27;86440;-59
2022/12/08 09:22:11;;;;;;;0.30;0.30;;;;;;;;;;5041086;27;87042;-59
2022/12/08 09:24:40;;;;;;;2.10;0.20;;;;;;;;;;5041449;27;87134;-59
2022/12/08 09:27:08;;;;;;;0.37;0.37;;;;;;;;;;5040284;27;89912;-59
2022/12/08 09:29:36;;;;;;;0.40;0.40;;;;;;;;;;5041088;28;89919;-59
2022/12/08 09:32:05;;;;;;;0.20;0.20;;;;;;;;;;5041106;28;87198;-57
2022/12/08 09:34:33;;;;;;;0.77;0.27;;;;;;;;;;5040765;27;87066;-57
2022/12/08 09:37:01;;;;;;;0.40;0.30;;;;;;;;;;5040844;28;89071;-56
2022/12/08 09:39:31;;;;;;;0.57;0.33;;;;;;;;;;5040477;28;89001;-57
2022/12/08 09:42:00;;;;;;;0.70;0.43;;;;;;;;;;5040857;28;87148;-57
2022/12/08 09:44:46;;;;;;;0.30;0.30;;;;;;;;;;5040607;27;86306;-57
2022/12/08 09:47:17;;;;;;;0.30;0.30;;;;;;;;;;5040879;28;89130;-58
2022/12/08 09:49:46;;;;;;;0.30;0.30;;;;;;;;;;5040804;28;88025;-57
2022/12/08 09:52:16;;;;;;;0.40;0.40;;;;;;;;;;5039905;28;88032;-57
2022/12/08 09:54:46;;;;;;;1.27;0.50;;;;;;;;;;5041362;28;86891;-57
2022/12/08 09:57:15;;;;;;;0.53;0.50;;;;;;;;;;5040608;28;89136;-57
2022/12/08 09:59:44;;;;;;;0.93;0.40;;;;;;;;;;5040708;28;87749;-57
2022/12/08 10:02:19;;;;;;;0.40;0.40;;;;;;;;;;5039767;28;87021;-57
2022/12/08 10:04:48;;;;;;;0.43;0.30;;;;;;;;;;5040971;27;87056;-57
2022/12/08 10:07:17;;;;;;;0.30;0.30;;;;;;;;;;5040080;27;88969;-58
2022/12/08 10:09:49;;;;;;;1.03;0.83;;;;;;;;;;5040755;28;88820;-57
2022/12/08 10:12:19;;;;;;;0.50;0.30;;;;;;;;;;5041042;27;87055;-57
2022/12/08 10:14:48;;;;;;;0.23;0.23;;;;;;;;;;5040648;27;87055;-57
2022/12/08 10:17:17;;;;;;;0.23;0.23;;;;;;;;;;5039969;28;90119;-57
2022/12/08 10:19:46;;;;;;;0.17;0.17;;;;;;;;;;5040020;27;89937;-57
2022/12/08 10:22:16;;;;;;;0.30;0.30;;;;;;;;;;5040220;27;87749;-57
2022/12/08 10:24:45;;;;;;;0.30;0.30;;;;;;;;;;5040173;28;86967;-57
2022/12/08 10:27:14;;;;;;;0.30;0.30;;;;;;;;;;5040134;28;88962;-57
2022/12/08 10:29:43;;;;;;;0.30;0.30;;;;;;;;;;5040031;27;87650;-58
2022/12/08 10:32:15;;;;;;;0.60;0.50;;;;;;;;;;5040312;28;87157;-57
2022/12/08 10:34:58;;;;;;;0.50;0.50;;;;;;;;;;5040612;28;86323;-57
2022/12/08 10:37:26;;;;;;;0.90;0.60;;;;;;;;;;5039915;27;89029;-59
2022/12/08 10:40:00;;;;;;;0.93;0.37;;;;;;;;;;5040079;28;88514;-57
2022/12/08 10:42:32;;;;;;;0.40;0.40;;;;;;;;;;5039752;27;88047;-57
2022/12/08 10:45:01;;;;;;;1.70;0.40;;;;;;;;;;5039848;28;87130;-58
2022/12/08 10:47:30;;;;;;;0.37;0.37;;;;;;;;;;5039959;28;89406;-59
2022/12/08 10:50:18;;;;;;;0.70;0.67;;;;;;;;;;5039549;27;88946;-59
2022/12/08 10:52:46;;;;;;;0.57;0.57;;;;;;;;;;5039889;27;87074;-56
2022/12/08 10:55:15;;;;;;;0.50;0.50;;;;;;;;;;5040055;27;86968;-59
2022/12/08 10:57:44;;;;;;;1.37;0.80;;;;;;;;;;5039533;28;89176;-59
2022/12/08 11:00:14;;;;;;;0.40;0.40;;;;;;;;;;5040201;27;88018;-59
2022/12/08 11:02:52;;;;;;;0.87;0.87;;;;;;;;;;5039899;27;86904;-59
2022/12/08 11:05:21;;;;;;;0.53;0.50;;;;;;;;;;5039935;27;87111;-59
2022/12/08 11:07:49;;;;;;;0.60;0.60;;;;;;;;;;5039120;28;90042;-59
2022/12/08 11:10:18;;;;;;;1.53;0.63;;;;;;;;;;5039812;27;89667;-59
2022/12/08 11:12:50;;;;;;;0.53;0.53;;;;;;;;;;5041667;27;87106;-59
2022/12/08 11:15:18;;;;;;;0.60;0.60;;;;;;;;;;5043009;27;86985;-59
2022/12/08 11:17:50;;;;;;;0.83;0.83;;;;;;;;;;5043405;28;89092;-59
2022/12/08 11:20:24;;;;;;;0.90;0.90;;;;;;;;;;5042945;27;88878;-59
2022/12/08 11:22:53;;;;;;;0.83;0.83;;;;;;;;;;5043160;27;86962;-59
2022/12/08 11:25:22;;;;;;;0.70;0.70;;;;;;;;;;5043520;27;86413;-59
2022/12/08 11:27:52;;;;;;;0.90;0.90;;;;;;;;;;5042801;28;89249;-59
2022/12/08 11:30:21;;;;;;;0.90;0.90;;;;;;;;;;5043149;28;88854;-59
2022/12/08 11:32:50;;;;;;;1.20;1.10;;;;;;;;;;5042624;28;88018;-59
2022/12/08 11:35:20;;;;;;;1.00;1.00;;;;;;;;;;5043152;27;86961;-59
2022/12/08 11:37:48;;;;;;;1.10;1.00;;;;;;;;;;5042867;27;88934;-59
2022/12/08 11:40:17;;;;;;;1.10;1.10;;;;;;;;;;5043059;27;88990;-59
2022/12/08 11:42:48;;;;;;;1.03;1.03;;;;;;;;;;5042913;27;86894;-59
2022/12/08 11:45:19;;;;;;;1.40;1.30;;;;;;;;;;5042956;27;87579;-59
2022/12/08 11:47:48;;;;;;;1.13;1.07;;;;;;;;;;5042766;27;88664;-59
2022/12/08 11:50:24;;;;;;;1.30;1.20;;;;;;;;;;5042723;27;88820;-60
2022/12/08 11:52:52;;;;;;;1.10;1.10;;;;;;;;;;5042883;27;87038;-60
2022/12/08 11:55:27;;;;;;;2.17;1.40;;;;;;;;;;5042772;27;86948;-60
2022/12/08 11:58:01;;;;;;;1.40;1.30;;;;;;;;;;5042090;27;89834;-61
2022/12/08 12:00:31;;;;;;;1.30;1.30;;;;;;;;;;5042329;27;89683;-60
2022/12/08 12:03:01;;;;;;;3.13;1.33;;;;;;;;;;5042814;28;87117;-60
2022/12/08 12:05:30;;;;;;;1.70;1.40;;;;;;;;;;5042840;27;86919;-60
2022/12/08 12:08:21;;;;;;;1.67;1.57;;;;;;;;;;5041987;28;88590;-60
2022/12/08 12:10:53;;;;;;;1.80;1.70;;;;;;;;;;5042184;28;87746;-60
2022/12/08 12:13:39;;;;;;;1.97;1.87;;;;;;;;;;5042280;27;87105;-59
2022/12/08 12:16:20;;;;;;;1.90;1.80;;;;;;;;;;5038878;27;86279;-59
2022/12/08 12:18:48;;;;;;;1.80;1.70;;;;;;;;;;5042366;27;89071;-60
2022/12/08 12:21:18;;;;;;;1.80;1.70;;;;;;;;;;5041815;27;88960;-61
2022/12/08 12:23:47;;;;;;;2.00;1.80;;;;;;;;;;5040889;27;87972;-60
2022/12/08 12:26:18;;;;;;;1.70;1.60;;;;;;;;;;5042132;27;86989;-59
2022/12/08 12:28:48;;;;;;;1.90;1.80;;;;;;;;;;5041896;27;87444;-60
2022/12/08 12:31:18;;;;;;;1.97;1.80;;;;;;;;;;5042026;28;88973;-59
2022/12/08 12:33:47;;;;;;;2.07;1.87;;;;;;;;;;5041917;27;86972;-60
2022/12/08 12:36:15;;;;;;;2.00;1.63;;;;;;;;;;5041863;27;87685;-59
2022/12/08 12:39:05;;;;;;;2.83;2.63;;;;;;;;;;5041861;27;88629;-60
2022/12/08 12:41:36;;;;;;;2.40;2.20;;;;;;;;;;5041917;27;87831;-60
2022/12/08 12:44:09;;;;;;;2.07;1.97;;;;;;;;;;5041896;27;87102;-60
2022/12/08 12:46:54;;;;;;;4.60;2.20;;;;;;;;;;5041750;28;87049;-60
2022/12/08 12:49:56;;;;;;;2.37;2.27;;;;;;;;;;5040733;27;89128;-59
2022/12/08 12:52:54;;;;;;;2.33;2.13;;;;;;;;;;5018619;28;89734;-60
2022/12/08 12:55:29;;;;;;;2.60;2.40;;;;;;;;;;5019379;28;87229;-60
2022/12/08 12:57:58;;;;;;;2.47;2.33;;;;;;;;;;5035045;27;87050;-60
2022/12/08 13:00:27;;;;;;;2.43;2.33;;;;;;;;;;5041376;27;89268;-60
2022/12/08 13:02:56;;;;;;;2.57;2.37;;;;;;;;;;5041444;28;87759;-60
2022/12/08 13:05:26;;;;;;;2.20;1.90;;;;;;;;;;5041425;27;87145;-60
2022/12/08 13:07:55;;;;;;;2.67;2.47;;;;;;;;;;5041888;28;86330;-60
2022/12/08 13:10:23;;;;;;;2.67;2.47;;;;;;;;;;5041511;27;89030;-60
2022/12/08 13:13:02;;;;;;;2.87;2.50;;;;;;;;;;5041201;28;88941;-60
2022/12/08 13:15:34;;;;;;;2.83;2.60;;;;;;;;;;5040951;27;87950;-60
2022/12/08 13:18:04;;;;;;;3.10;2.00;;;;;;;;;;5041143;28;87061;-60
2022/12/08 13:20:32;;;;;;;2.23;2.13;;;;;;;;;;5040663;27;89143;-60
2022/12/08 13:23:04;;;;;;;2.40;2.20;;;;;;;;;;5040678;27;88855;-60
2022/12/08 13:25:50;;;;;;;2.20;2.10;;;;;;;;;;5040805;27;87135;-60
2022/12/08 13:28:19;;;;;;;2.50;2.30;;;;;;;;;;5040494;27;87007;-60
2022/12/08 13:30:47;;;;;;;2.90;2.70;;;;;;;;;;5040639;28;89219;-60
2022/12/08 13:33:18;;;;;;;2.60;2.40;;;;;;;;;;5041682;27;87778;-60
2022/12/08 13:35:53;;;;;;;2.60;2.40;;;;;;;;;;5040301;27;87055;-60
2022/12/08 13:38:22;;;;;;;2.33;2.23;;;;;;;;;;5041374;27;87027;-60
2022/12/08 13:40:50;;;;;;;2.13;2.03;;;;;;;;;;5040420;27;90152;-60
2022/12/08 13:43:20;;;;;;;2.70;2.50;;;;;;;;;;5040140;28;89905;-60
2022/12/08 13:45:48;;;;;;;2.10;2.00;;;;;;;;;;5040515;28;87057;-60
2022/12/08 13:48:41;;;;;;;2.50;2.30;;;;;;;;;;5041197;27;87059;-60
2022/12/08 13:51:31;;;;;;;2.03;1.93;;;;;;;;;;5040197;28;87751;-60
2022/12/08 13:54:21;;;;;;;2.50;2.30;;;;;;;;;;5040307;28;87748;-60
2022/12/08 13:57:14;;;;;;;2.10;2.00;;;;;;;;;;5040629;28;86978;-60
2022/12/08 13:59:43;;;;;;;2.23;2.10;;;;;;;;;;5040756;27;86278;-60
2022/12/08 14:02:16;;;;;;;2.53;2.00;;;;;;;;;;5040860;28;88205;-60
2022/12/08 14:04:47;;;;;;;2.20;2.00;;;;;;;;;;5040652;27;89036;-60
2022/12/08 14:07:36;;;;;;;2.13;2.00;;;;;;;;;;5040245;28;87886;-61
2022/12/08 14:10:07;;;;;;;2.03;1.93;;;;;;;;;;5040579;27;87031;-60
2022/12/08 14:12:36;;;;;;;2.27;2.07;;;;;;;;;;5040242;28;89100;-60
2022/12/08 14:15:05;;;;;;;2.30;2.10;;;;;;;;;;5040494;27;88706;-60
2022/12/08 14:17:33;;;;;;;2.90;2.13;;;;;;;;;;5040884;27;86948;-60
2022/12/08 14:20:05;;;;;;;2.30;2.10;;;;;;;;;;5040662;27;86942;-60
2022/12/08 14:22:34;;;;;;;2.83;2.30;;;;;;;;;;5039764;27;88994;-60
2022/12/08 14:25:02;;;;;;;2.10;2.00;;;;;;;;;;5040174;28;88853;-60
2022/12/08 14:27:33;;;;;;;2.20;2.00;;;;;;;;;;5040277;27;87045;-60
2022/12/08 14:30:01;;;;;;;2.30;2.10;;;;;;;;;;5040573;27;86926;-60
2022/12/08 14:32:30;;;;;;;2.10;1.83;;;;;;;;;;5039782;28;90091;-60
2022/12/08 14:35:00;;;;;;;1.73;1.63;;;;;;;;;;5040439;27;88732;-60
2022/12/08 14:37:30;;;;;;;3.13;1.77;;;;;;;;;;5040698;28;86959;-60
2022/12/08 14:40:00;;;;;;;1.83;1.60;;;;;;;;;;5040710;27;87145;-60
2022/12/08 14:42:29;;;;;;;1.90;1.80;;;;;;;;;;5040041;27;89095;-60
2022/12/08 14:44:59;;;;;;;1.63;1.53;;;;;;;;;;5039953;27;87842;-60
2022/12/08 14:47:31;;;;;;;1.57;1.47;;;;;;;;;;5041772;27;87074;-60
2022/12/08 14:49:59;;;;;;;1.60;1.50;;;;;;;;;;5043742;28;86263;-60
2022/12/08 14:52:27;;;;;;;1.93;1.80;;;;;;;;;;5042867;28;89187;-59
2022/12/08 14:54:57;;;;;;;1.47;1.37;;;;;;;;;;5043730;27;88149;-60
2022/12/08 14:57:28;;;;;;;1.83;1.73;;;;;;;;;;5042915;27;88052;-60
2022/12/08 14:59:56;;;;;;;1.53;1.43;;;;;;;;;;5043373;28;87112;-60
2022/12/08 15:02:26;;;;;;;1.93;1.60;;;;;;;;;;5043342;28;89337;-60
2022/12/08 15:04:57;;;;;;;2.27;2.07;;;;;;;;;;5042979;27;88164;-60
2022/12/08 15:07:26;;;;;;;1.60;1.40;;;;;;;;;;5043010;28;87036;-60